sensor_id;sensor_type;location;lat;lon;timestamp;pressure;altitude;pressure_sealevel;temperature;humidity
48527;BME280;34317;51.660;5.824;2024-01-07T00:01:55;101645.44;;;5.48;62.06
48527;BME280;34317;51.660;5.824;2024-01-07T00:04:22;101642.81;;;5.48;61.98
48527;BME280;34317;51.660;5.824;2024-01-07T00:06:50;101646.34;;;5.47;62.09
48527;BME280;34317;51.660;5.824;2024-01-07T00:09:17;101649.81;;;5.49;62.13
48527;BME280;34317;51.660;5.824;2024-01-07T00:11:44;101648.06;;;5.48;62.09
48527;BME280;34317;51.660;5.824;2024-01-07T00:14:11;101649.81;;;5.49;62.06
48527;BME280;34317;51.660;5.824;2024-01-07T00:16:41;101653.31;;;5.48;61.84
48527;BME280;34317;51.660;5.824;2024-01-07T00:19:08;101656.84;;;5.50;62.09
48527;BME280;34317;51.660;5.824;2024-01-07T00:21:36;101651.56;;;5.50;62.25
48527;BME280;34317;51.660;5.824;2024-01-07T00:24:03;101655.06;;;5.49;61.90
48527;BME280;34317;51.660;5.824;2024-01-07T00:26:31;101660.34;;;5.49;61.97
48527;BME280;34317;51.660;5.824;2024-01-07T00:28:58;101667.38;;;5.47;62.03
48527;BME280;34317;51.660;5.824;2024-01-07T00:31:25;101670.84;;;5.46;61.85
48527;BME280;34317;51.660;5.824;2024-01-07T00:33:53;101668.28;;;5.44;62.20
48527;BME280;34317;51.660;5.824;2024-01-07T00:36:20;101672.63;;;5.44;62.08
48527;BME280;34317;51.660;5.824;2024-01-07T00:38:48;101683.13;;;5.44;62.12
48527;BME280;34317;51.660;5.824;2024-01-07T00:41:15;101680.50;;;5.44;62.16
48527;BME280;34317;51.660;5.824;2024-01-07T00:43:44;101675.28;;;5.42;62.16
48527;BME280;34317;51.660;5.824;2024-01-07T00:46:11;101680.53;;;5.42;62.09
48527;BME280;34317;51.660;5.824;2024-01-07T00:48:39;101681.41;;;5.43;62.04
48527;BME280;34317;51.660;5.824;2024-01-07T00:51:06;101684.06;;;5.41;61.97
48527;BME280;34317;51.660;5.824;2024-01-07T00:53:34;101687.56;;;5.40;61.92
48527;BME280;34317;51.660;5.824;2024-01-07T00:56:01;101687.59;;;5.39;62.02
48527;BME280;34317;51.660;5.824;2024-01-07T00:58:29;101685.00;;;5.36;62.14
48527;BME280;34317;51.660;5.824;2024-01-07T01:00:56;101688.53;;;5.32;62.15
48527;BME280;34317;51.660;5.824;2024-01-07T01:03:23;101697.34;;;5.28;62.14
48527;BME280;34317;51.660;5.824;2024-01-07T01:05:52;101706.09;;;5.25;62.28
48527;BME280;34317;51.660;5.824;2024-01-07T01:08:19;101706.16;;;5.20;62.31
48527;BME280;34317;51.660;5.824;2024-01-07T01:10:47;101706.16;;;5.17;62.59
48527;BME280;34317;51.660;5.824;2024-01-07T01:13:14;101711.47;;;5.14;62.60
48527;BME280;34317;51.660;5.824;2024-01-07T01:15:41;101706.22;;;5.14;62.45
48527;BME280;34317;51.660;5.824;2024-01-07T01:18:08;101713.19;;;5.12;62.54
48527;BME280;34317;51.660;5.824;2024-01-07T01:20:36;101710.56;;;5.12;62.74
48527;BME280;34317;51.660;5.824;2024-01-07T01:23:03;101713.19;;;5.12;62.70
48527;BME280;34317;51.660;5.824;2024-01-07T01:25:32;101712.34;;;5.13;62.75
48527;BME280;34317;51.660;5.824;2024-01-07T01:27:59;101717.56;;;5.15;62.67
48527;BME280;34317;51.660;5.824;2024-01-07T01:30:26;101728.94;;;5.15;62.75
48527;BME280;34317;51.660;5.824;2024-01-07T01:32:57;101714.94;;;5.16;62.85
48527;BME280;34317;51.660;5.824;2024-01-07T01:35:26;101721.91;;;5.17;63.07
48527;BME280;34317;51.660;5.824;2024-01-07T01:37:54;101742.94;;;5.17;62.90
48527;BME280;34317;51.660;5.824;2024-01-07T01:40:21;101739.44;;;5.15;62.95
48527;BME280;34317;51.660;5.824;2024-01-07T01:42:49;101744.69;;;5.15;62.88
48527;BME280;34317;51.660;5.824;2024-01-07T01:45:18;101739.44;;;5.15;63.20
48527;BME280;34317;51.660;5.824;2024-01-07T01:47:46;101746.47;;;5.16;63.10
48527;BME280;34317;51.660;5.824;2024-01-07T01:50:14;101751.66;;;5.18;63.07
48527;BME280;34317;51.660;5.824;2024-01-07T01:52:43;101746.41;;;5.19;63.08
48527;BME280;34317;51.660;5.824;2024-01-07T01:55:12;101747.31;;;5.20;63.08
48527;BME280;34317;51.660;5.824;2024-01-07T01:57:40;101755.16;;;5.21;63.12
48527;BME280;34317;51.660;5.824;2024-01-07T02:00:09;101758.66;;;5.20;63.11
48527;BME280;34317;51.660;5.824;2024-01-07T02:02:37;101762.16;;;5.19;63.16
48527;BME280;34317;51.660;5.824;2024-01-07T02:05:04;101753.41;;;5.20;63.19
48527;BME280;34317;51.660;5.824;2024-01-07T02:07:32;101762.16;;;5.19;62.88
48527;BME280;34317;51.660;5.824;2024-01-07T02:09:59;101758.66;;;5.20;63.09
48527;BME280;34317;51.660;5.824;2024-01-07T02:12:27;101767.41;;;5.22;62.89
48527;BME280;34317;51.660;5.824;2024-01-07T02:14:54;101765.66;;;5.21;63.04
48527;BME280;34317;51.660;5.824;2024-01-07T02:17:23;101756.91;;;5.22;63.31
48527;BME280;34317;51.660;5.824;2024-01-07T02:19:50;101763.00;;;5.23;63.22
48527;BME280;34317;51.660;5.824;2024-01-07T02:22:18;101765.63;;;5.24;63.02
48527;BME280;34317;51.660;5.824;2024-01-07T02:24:46;101766.50;;;5.26;63.27
48527;BME280;34317;51.660;5.824;2024-01-07T02:27:13;101765.63;;;5.28;63.41
48527;BME280;34317;51.660;5.824;2024-01-07T02:29:40;101772.59;;;5.29;63.28
48527;BME280;34317;51.660;5.824;2024-01-07T02:32:09;101769.09;;;5.30;63.15
48527;BME280;34317;51.660;5.824;2024-01-07T02:34:37;101773.47;;;5.29;62.85
48527;BME280;34317;51.660;5.824;2024-01-07T02:37:04;101773.50;;;5.28;62.90
48527;BME280;34317;51.660;5.824;2024-01-07T02:39:31;101778.75;;;5.26;62.85
48527;BME280;34317;51.660;5.824;2024-01-07T02:41:59;101780.53;;;5.25;63.23
48527;BME280;34317;51.660;5.824;2024-01-07T02:44:26;101781.41;;;5.24;63.12
48527;BME280;34317;51.660;5.824;2024-01-07T02:46:54;101787.50;;;5.23;63.05
48527;BME280;34317;51.660;5.824;2024-01-07T02:49:21;101788.41;;;5.22;62.77
48527;BME280;34317;51.660;5.824;2024-01-07T02:51:49;101794.56;;;5.20;62.79
48527;BME280;34317;51.660;5.824;2024-01-07T02:54:17;101795.44;;;5.17;62.88
48527;BME280;34317;51.660;5.824;2024-01-07T02:56:44;101802.47;;;5.15;62.94
48527;BME280;34317;51.660;5.824;2024-01-07T02:59:11;101796.34;;;5.13;62.89
48527;BME280;34317;51.660;5.824;2024-01-07T03:01:39;101798.97;;;5.15;63.17
48527;BME280;34317;51.660;5.824;2024-01-07T03:04:10;101805.09;;;5.15;63.21
48527;BME280;34317;51.660;5.824;2024-01-07T03:06:38;101811.25;;;5.14;62.95
48527;BME280;34317;51.660;5.824;2024-01-07T03:09:06;101807.78;;;5.09;63.04
48527;BME280;34317;51.660;5.824;2024-01-07T03:11:33;101808.63;;;5.06;63.06
48527;BME280;34317;51.660;5.824;2024-01-07T03:14:05;101807.78;;;5.06;63.27
48527;BME280;34317;51.660;5.824;2024-01-07T03:16:32;101811.31;;;5.05;63.15
48527;BME280;34317;51.660;5.824;2024-01-07T03:19:00;101813.06;;;5.03;63.24
48527;BME280;34317;51.660;5.824;2024-01-07T03:21:29;101813.06;;;5.03;62.96
48527;BME280;34317;51.660;5.824;2024-01-07T03:23:56;101821.81;;;5.02;63.01
48527;BME280;34317;51.660;5.824;2024-01-07T03:26:24;101820.06;;;5.01;62.85
48527;BME280;34317;51.660;5.824;2024-01-07T03:28:51;101820.94;;;5.03;63.07
48527;BME280;34317;51.660;5.824;2024-01-07T03:31:19;101818.31;;;5.03;63.06
48527;BME280;34317;51.660;5.824;2024-01-07T03:33:48;101818.31;;;5.03;63.31
48527;BME280;34317;51.660;5.824;2024-01-07T03:36:16;101818.31;;;5.03;63.11
48527;BME280;34317;51.660;5.824;2024-01-07T03:38:43;101823.56;;;5.03;63.31
48527;BME280;34317;51.660;5.824;2024-01-07T03:41:16;101825.28;;;5.04;63.07
48527;BME280;34317;51.660;5.824;2024-01-07T03:43:46;101823.56;;;5.03;62.68
48527;BME280;34317;51.660;5.824;2024-01-07T03:46:14;101832.31;;;5.05;62.96
48527;BME280;34317;51.660;5.824;2024-01-07T03:48:42;101835.78;;;5.04;63.07
48527;BME280;34317;51.660;5.824;2024-01-07T03:51:10;101840.19;;;5.03;62.87
48527;BME280;34317;51.660;5.824;2024-01-07T03:53:38;101831.44;;;5.01;62.77
48527;BME280;34317;51.660;5.824;2024-01-07T03:56:05;101836.69;;;5.01;62.77
48527;BME280;34317;51.660;5.824;2024-01-07T03:58:34;101834.09;;;5.00;62.69
48527;BME280;34317;51.660;5.824;2024-01-07T04:01:02;101839.31;;;5.00;62.72
48527;BME280;34317;51.660;5.824;2024-01-07T04:03:29;101836.72;;;5.00;62.78
48527;BME280;34317;51.660;5.824;2024-01-07T04:05:57;101837.56;;;4.99;62.80
48527;BME280;34317;51.660;5.824;2024-01-07T04:08:25;101842.81;;;4.99;62.87
48527;BME280;34317;51.660;5.824;2024-01-07T04:10:52;101845.47;;;4.97;62.57
48527;BME280;34317;51.660;5.824;2024-01-07T04:13:20;101853.34;;;4.96;62.73
48527;BME280;34317;51.660;5.824;2024-01-07T04:15:47;101846.34;;;4.95;63.03
48527;BME280;34317;51.660;5.824;2024-01-07T04:18:14;101849.88;;;4.94;62.64
48527;BME280;34317;51.660;5.824;2024-01-07T04:20:43;101856.00;;;4.94;62.82
48527;BME280;34317;51.660;5.824;2024-01-07T04:23:10;101860.38;;;4.94;62.74
48527;BME280;34317;51.660;5.824;2024-01-07T04:25:37;101866.50;;;4.91;62.52
48527;BME280;34317;51.660;5.824;2024-01-07T04:28:05;101863.88;;;4.90;62.72
48527;BME280;34317;51.660;5.824;2024-01-07T04:30:33;101865.63;;;4.87;62.52
48527;BME280;34317;51.660;5.824;2024-01-07T04:33:01;101877.03;;;4.86;62.47
48527;BME280;34317;51.660;5.824;2024-01-07T04:35:28;101874.41;;;4.86;62.70
48527;BME280;34317;51.660;5.824;2024-01-07T04:37:56;101884.91;;;4.86;62.86
48527;BME280;34317;51.660;5.824;2024-01-07T04:40:23;101876.13;;;4.87;62.76
48527;BME280;34317;51.660;5.824;2024-01-07T04:42:52;101884.91;;;4.86;62.38
48527;BME280;34317;51.660;5.824;2024-01-07T04:45:19;101888.41;;;4.85;62.58
48527;BME280;34317;51.660;5.824;2024-01-07T04:47:46;101882.28;;;4.83;62.48
48527;BME280;34317;51.660;5.824;2024-01-07T04:50:14;101893.69;;;4.79;62.39
48527;BME280;34317;51.660;5.824;2024-01-07T04:52:42;101895.44;;;4.77;62.33
48527;BME280;34317;51.660;5.824;2024-01-07T04:55:09;101892.81;;;4.76;62.39
48527;BME280;34317;51.660;5.824;2024-01-07T04:57:36;101894.56;;;4.75;62.45
48527;BME280;34317;51.660;5.824;2024-01-07T05:00:04;101898.97;;;4.73;62.31
48527;BME280;34317;51.660;5.824;2024-01-07T05:02:32;101904.22;;;4.73;62.80
48527;BME280;34317;51.660;5.824;2024-01-07T05:05:00;101903.31;;;4.73;62.49
48527;BME280;34317;51.660;5.824;2024-01-07T05:07:27;101905.94;;;4.74;62.62
48527;BME280;34317;51.660;5.824;2024-01-07T05:09:55;101900.69;;;4.74;62.47
48527;BME280;34317;51.660;5.824;2024-01-07T05:12:22;101904.22;;;4.73;62.51
48527;BME280;34317;51.660;5.824;2024-01-07T05:14:52;101910.31;;;4.72;62.73
48527;BME280;34317;51.660;5.824;2024-01-07T05:17:19;101920.81;;;4.72;62.77
48527;BME280;34317;51.660;5.824;2024-01-07T05:19:47;101914.69;;;4.70;62.65
48527;BME280;34317;51.660;5.824;2024-01-07T05:22:16;101925.19;;;4.70;62.43
48527;BME280;34317;51.660;5.824;2024-01-07T05:24:43;101926.97;;;4.71;62.60
48527;BME280;34317;51.660;5.824;2024-01-07T05:27:11;101926.97;;;4.71;62.78
48527;BME280;34317;51.660;5.824;2024-01-07T05:29:38;101939.19;;;4.72;62.76
48527;BME280;34317;51.660;5.824;2024-01-07T05:32:06;101946.19;;;4.73;62.67
48527;BME280;34317;51.660;5.824;2024-01-07T05:34:33;101949.69;;;4.72;62.73
48527;BME280;34317;51.660;5.824;2024-01-07T05:37:01;101942.72;;;4.71;62.59
48527;BME280;34317;51.660;5.824;2024-01-07T05:39:28;101949.69;;;4.72;62.66
48527;BME280;34317;51.660;5.824;2024-01-07T05:41:56;101946.19;;;4.73;62.66
48527;BME280;34317;51.660;5.824;2024-01-07T05:44:23;101954.94;;;4.75;62.23
48527;BME280;34317;51.660;5.824;2024-01-07T05:46:56;101955.78;;;4.73;62.25
48527;BME280;34317;51.660;5.824;2024-01-07T05:49:23;101961.94;;;4.70;62.58
48527;BME280;34317;51.660;5.824;2024-01-07T05:51:51;101964.56;;;4.67;62.09
48527;BME280;34317;51.660;5.824;2024-01-07T05:54:19;101958.44;;;4.65;62.40
48527;BME280;34317;51.660;5.824;2024-01-07T05:56:46;101960.19;;;4.63;62.34
48527;BME280;34317;51.660;5.824;2024-01-07T05:59:13;101965.44;;;4.61;62.46
48527;BME280;34317;51.660;5.824;2024-01-07T06:01:42;101973.34;;;4.58;62.37
48527;BME280;34317;51.660;5.824;2024-01-07T06:04:09;101981.22;;;4.57;62.37
48527;BME280;34317;51.660;5.824;2024-01-07T06:06:37;101973.34;;;4.55;62.27
48527;BME280;34317;51.660;5.824;2024-01-07T06:09:04;101974.19;;;4.56;62.50
48527;BME280;34317;51.660;5.824;2024-01-07T06:11:33;101982.97;;;4.55;62.31
48527;BME280;34317;51.660;5.824;2024-01-07T06:14:00;101983.84;;;4.52;62.43
48527;BME280;34317;51.660;5.824;2024-01-07T06:16:27;101974.22;;;4.49;62.52
48527;BME280;34317;51.660;5.824;2024-01-07T06:18:54;101978.59;;;4.49;62.48
48527;BME280;34317;51.660;5.824;2024-01-07T06:21:25;101984.72;;;4.49;62.58
48527;BME280;34317;51.660;5.824;2024-01-07T06:23:57;101993.47;;;4.48;62.34
48527;BME280;34317;51.660;5.824;2024-01-07T06:26:24;102003.97;;;4.48;62.20
48527;BME280;34317;51.660;5.824;2024-01-07T06:28:51;102010.06;;;4.47;62.42
48527;BME280;34317;51.660;5.824;2024-01-07T06:31:18;102014.44;;;4.45;61.96
48527;BME280;34317;51.660;5.824;2024-01-07T06:33:45;102013.59;;;4.46;62.45
48527;BME280;34317;51.660;5.824;2024-01-07T06:36:13;102020.56;;;4.47;62.25
48527;BME280;34317;51.660;5.824;2024-01-07T06:38:41;102023.19;;;4.47;62.52
48527;BME280;34317;51.660;5.824;2024-01-07T06:41:11;102024.94;;;4.45;62.02
48527;BME280;34317;51.660;5.824;2024-01-07T06:43:41;102042.44;;;4.43;62.06
48527;BME280;34317;51.660;5.824;2024-01-07T06:46:09;102034.56;;;4.42;61.89
48527;BME280;34317;51.660;5.824;2024-01-07T06:48:38;102040.69;;;4.39;62.04
48527;BME280;34317;51.660;5.824;2024-01-07T06:51:09;102045.06;;;4.37;62.50
48527;BME280;34317;51.660;5.824;2024-01-07T06:53:40;102054.69;;;4.35;62.06
48527;BME280;34317;51.660;5.824;2024-01-07T06:56:07;102047.69;;;4.34;62.03
48527;BME280;34317;51.660;5.824;2024-01-07T06:58:35;102046.81;;;4.34;62.04
48527;BME280;34317;51.660;5.824;2024-01-07T07:01:02;102057.31;;;4.34;62.19
48527;BME280;34317;51.660;5.824;2024-01-07T07:03:30;102060.78;;;4.33;61.96
48527;BME280;34317;51.660;5.824;2024-01-07T07:06:05;102068.66;;;4.31;62.08
48527;BME280;34317;51.660;5.824;2024-01-07T07:08:35;102064.28;;;4.28;62.10
48527;BME280;34317;51.660;5.824;2024-01-07T07:14:13;102082.63;;;4.25;62.23
48527;BME280;34317;51.660;5.824;2024-01-07T07:16:40;102083.53;;;4.26;61.92
48527;BME280;34317;51.660;5.824;2024-01-07T07:19:07;102086.16;;;4.26;62.01
48527;BME280;34317;51.660;5.824;2024-01-07T07:21:35;102094.88;;;4.28;62.05
48527;BME280;34317;51.660;5.824;2024-01-07T07:24:02;102091.38;;;4.29;62.05
48527;BME280;34317;51.660;5.824;2024-01-07T07:26:29;102096.63;;;4.29;62.05
48527;BME280;34317;51.660;5.824;2024-01-07T07:28:57;102107.97;;;4.31;61.88
48527;BME280;34317;51.660;5.824;2024-01-07T07:31:24;102103.63;;;4.30;61.91
48527;BME280;34317;51.660;5.824;2024-01-07T07:33:51;102110.59;;;4.31;61.86
48527;BME280;34317;51.660;5.824;2024-01-07T07:36:19;102107.13;;;4.32;62.06
48527;BME280;34317;51.660;5.824;2024-01-07T07:38:46;102115.88;;;4.33;62.01
48527;BME280;34317;51.660;5.824;2024-01-07T07:41:13;102119.34;;;4.33;61.91
48527;BME280;34317;51.660;5.824;2024-01-07T07:43:41;102121.13;;;4.34;61.91
48527;BME280;34317;51.660;5.824;2024-01-07T07:46:08;102135.09;;;4.36;62.19
48527;BME280;34317;51.660;5.824;2024-01-07T07:48:35;102135.09;;;4.38;61.98
48527;BME280;34317;51.660;5.824;2024-01-07T07:51:03;102136.88;;;4.37;61.77
48527;BME280;34317;51.660;5.824;2024-01-07T07:53:30;102138.63;;;4.35;62.02
48527;BME280;34317;51.660;5.824;2024-01-07T07:55:59;102135.97;;;4.34;61.81
48527;BME280;34317;51.660;5.824;2024-01-07T07:58:36;102149.09;;;4.32;61.78
48527;BME280;34317;51.660;5.824;2024-01-07T08:01:06;102143.84;;;4.31;62.01
48527;BME280;34317;51.660;5.824;2024-01-07T08:03:38;102149.06;;;4.29;61.65
48527;BME280;34317;51.660;5.824;2024-01-07T08:06:09;102157.81;;;4.28;61.85
48527;BME280;34317;51.660;5.824;2024-01-07T08:08:39;102155.19;;;4.25;61.79
48527;BME280;34317;51.660;5.824;2024-01-07T08:11:07;102167.44;;;4.24;61.71
48527;BME280;34317;51.660;5.824;2024-01-07T08:13:37;102160.41;;;4.23;61.57
48527;BME280;34317;51.660;5.824;2024-01-07T08:16:07;102159.56;;;4.23;61.82
48527;BME280;34317;51.660;5.824;2024-01-07T08:18:38;102177.06;;;4.24;61.94
48527;BME280;34317;51.660;5.824;2024-01-07T08:21:07;102165.69;;;4.25;61.48
48527;BME280;34317;51.660;5.824;2024-01-07T08:23:37;102168.28;;;4.22;61.63
48527;BME280;34317;51.660;5.824;2024-01-07T08:26:06;102175.25;;;4.20;61.55
48527;BME280;34317;51.660;5.824;2024-01-07T08:28:36;102185.78;;;4.18;61.32
48527;BME280;34317;51.660;5.824;2024-01-07T08:31:05;102185.78;;;4.17;61.13
48527;BME280;34317;51.660;5.824;2024-01-07T08:33:35;102187.50;;;4.15;61.18
48527;BME280;34317;51.660;5.824;2024-01-07T08:36:03;102193.59;;;4.14;61.17
48527;BME280;34317;51.660;5.824;2024-01-07T08:38:31;102194.50;;;4.13;61.18
48527;BME280;34317;51.660;5.824;2024-01-07T08:40:58;102199.75;;;4.13;61.05
48527;BME280;34317;51.660;5.824;2024-01-07T08:43:26;102192.75;;;4.15;61.35
48527;BME280;34317;51.660;5.824;2024-01-07T08:45:53;102212.88;;;4.19;61.60
48527;BME280;34317;51.660;5.824;2024-01-07T08:48:20;102208.47;;;4.18;61.22
48527;BME280;34317;51.660;5.824;2024-01-07T08:50:54;102210.22;;;4.16;61.18
48527;BME280;34317;51.660;5.824;2024-01-07T08:53:21;102215.47;;;4.16;61.18
48527;BME280;34317;51.660;5.824;2024-01-07T08:55:49;102209.34;;;4.15;61.02
48527;BME280;34317;51.660;5.824;2024-01-07T08:58:16;102216.34;;;4.13;60.95
48527;BME280;34317;51.660;5.824;2024-01-07T09:00:44;102229.44;;;4.12;60.78
48527;BME280;34317;51.660;5.824;2024-01-07T09:03:11;102232.91;;;4.10;61.09
48527;BME280;34317;51.660;5.824;2024-01-07T09:05:39;102229.41;;;4.08;60.90
48527;BME280;34317;51.660;5.824;2024-01-07T09:08:06;102240.81;;;4.09;61.21
48527;BME280;34317;51.660;5.824;2024-01-07T09:10:34;102240.81;;;4.09;60.91
48527;BME280;34317;51.660;5.824;2024-01-07T09:13:05;102243.41;;;4.10;61.26
48527;BME280;34317;51.660;5.824;2024-01-07T09:15:37;102242.53;;;4.10;61.21
48527;BME280;34317;51.660;5.824;2024-01-07T09:18:08;102257.41;;;4.09;61.08
48527;BME280;34317;51.660;5.824;2024-01-07T09:20:40;102264.38;;;4.07;61.17
48527;BME280;34317;51.660;5.824;2024-01-07T09:28:49;102273.09;;;4.03;60.93
48527;BME280;34317;51.660;5.824;2024-01-07T09:31:17;102279.19;;;4.02;61.00
48527;BME280;34317;51.660;5.824;2024-01-07T09:33:47;102276.56;;;3.99;61.17
48527;BME280;34317;51.660;5.824;2024-01-07T09:36:16;102280.94;;;3.99;61.05
48527;BME280;34317;51.660;5.824;2024-01-07T09:38:57;102282.69;;;3.98;61.06
48527;BME280;34317;51.660;5.824;2024-01-07T09:41:26;102293.16;;;3.98;60.82
48527;BME280;34317;51.660;5.824;2024-01-07T09:43:59;102294.91;;;3.99;61.00
48527;BME280;34317;51.660;5.824;2024-01-07T09:46:32;102300.16;;;3.99;61.22
48527;BME280;34317;51.660;5.824;2024-01-07T09:49:07;102294.91;;;4.01;60.96
48527;BME280;34317;51.660;5.824;2024-01-07T09:51:39;102300.16;;;4.02;61.23
48527;BME280;34317;51.660;5.824;2024-01-07T09:54:15;102306.31;;;4.04;61.04
48527;BME280;34317;51.660;5.824;2024-01-07T09:57:05;102318.53;;;4.02;60.77
48527;BME280;34317;51.660;5.824;2024-01-07T09:59:37;102313.28;;;4.02;60.81
48527;BME280;34317;51.660;5.824;2024-01-07T10:02:14;102315.88;;;4.01;60.77
48527;BME280;34317;51.660;5.824;2024-01-07T10:04:46;102318.50;;;3.99;60.68
48527;BME280;34317;51.660;5.824;2024-01-07T10:07:19;102320.25;;;4.00;60.83
48527;BME280;34317;51.660;5.824;2024-01-07T10:09:51;102320.25;;;4.00;60.88
48527;BME280;34317;51.660;5.824;2024-01-07T10:12:25;102322.03;;;4.01;61.02
48527;BME280;34317;51.660;5.824;2024-01-07T10:14:56;102325.53;;;4.03;60.67
48527;BME280;34317;51.660;5.824;2024-01-07T10:17:27;102328.16;;;4.03;60.61
48527;BME280;34317;51.660;5.824;2024-01-07T10:19:57;102320.28;;;4.03;60.85
48527;BME280;34317;51.660;5.824;2024-01-07T10:22:28;102327.28;;;4.04;60.70
48527;BME280;34317;51.660;5.824;2024-01-07T10:24:59;102329.03;;;4.05;60.60
48527;BME280;34317;51.660;5.824;2024-01-07T10:27:34;102334.28;;;4.05;60.37
48527;BME280;34317;51.660;5.824;2024-01-07T10:30:04;102330.78;;;4.06;60.59
48527;BME280;34317;51.660;5.824;2024-01-07T10:32:37;102334.28;;;4.08;60.28
48527;BME280;34317;51.660;5.824;2024-01-07T10:35:18;102336.91;;;4.08;60.60
48527;BME280;34317;51.660;5.824;2024-01-07T10:37:48;102336.06;;;4.09;60.39
48527;BME280;34317;51.660;5.824;2024-01-07T10:40:17;102341.31;;;4.13;60.55
48527;BME280;34317;51.660;5.824;2024-01-07T10:42:48;102339.59;;;4.15;60.24
48527;BME280;34317;51.660;5.824;2024-01-07T10:45:18;102345.69;;;4.15;60.39
48527;BME280;34317;51.660;5.824;2024-01-07T10:47:50;102341.31;;;4.16;60.40
48527;BME280;34317;51.660;5.824;2024-01-07T10:50:27;102331.72;;;4.15;60.03
48527;BME280;34317;51.660;5.824;2024-01-07T10:53:04;102339.59;;;4.15;60.26
48527;BME280;34317;51.660;5.824;2024-01-07T10:55:36;102347.44;;;4.15;60.21
48527;BME280;34317;51.660;5.824;2024-01-07T10:58:08;102343.94;;;4.14;59.92
48527;BME280;34317;51.660;5.824;2024-01-07T11:00:40;102339.59;;;4.15;59.88
48527;BME280;34317;51.660;5.824;2024-01-07T11:03:23;102355.31;;;4.15;60.03
48527;BME280;34317;51.660;5.824;2024-01-07T11:16:44;102354.38;;;4.08;60.17
48527;BME280;34317;51.660;5.824;2024-01-07T11:19:13;102360.53;;;4.12;59.91
48527;BME280;34317;51.660;5.824;2024-01-07T11:21:41;102366.66;;;4.14;60.00
48527;BME280;34317;51.660;5.824;2024-01-07T11:24:09;102364.06;;;4.17;59.93
48527;BME280;34317;51.660;5.824;2024-01-07T11:26:36;102365.84;;;4.21;60.15
48527;BME280;34317;51.660;5.824;2024-01-07T11:29:04;102362.34;;;4.25;59.84
48527;BME280;34317;51.660;5.824;2024-01-07T11:31:58;102367.66;;;4.29;59.80
48527;BME280;34317;51.660;5.824;2024-01-07T11:34:44;102376.38;;;4.30;59.21
48527;BME280;34317;51.660;5.824;2024-01-07T11:37:14;102369.41;;;4.32;59.65
48527;BME280;34317;51.660;5.824;2024-01-07T11:39:43;102367.66;;;4.34;59.68
48527;BME280;34317;51.660;5.824;2024-01-07T11:42:13;102372.03;;;4.37;59.26
48527;BME280;34317;51.660;5.824;2024-01-07T11:44:54;102372.03;;;4.37;59.34
48527;BME280;34317;51.660;5.824;2024-01-07T11:47:23;102372.94;;;4.37;59.56
48527;BME280;34317;51.660;5.824;2024-01-07T11:49:55;102372.94;;;4.37;59.08
48527;BME280;34317;51.660;5.824;2024-01-07T11:52:22;102372.94;;;4.37;58.99
48527;BME280;34317;51.660;5.824;2024-01-07T11:54:50;102364.19;;;4.35;59.08
48527;BME280;34317;51.660;5.824;2024-01-07T11:57:17;102365.94;;;4.39;58.87
48527;BME280;34317;51.660;5.824;2024-01-07T11:59:45;102367.69;;;4.40;59.08
48527;BME280;34317;51.660;5.824;2024-01-07T12:02:12;102349.34;;;4.43;58.87
48527;BME280;34317;51.660;5.824;2024-01-07T12:04:39;102367.72;;;4.49;58.55
48527;BME280;34317;51.660;5.824;2024-01-07T12:07:07;102371.22;;;4.52;58.71
48527;BME280;34317;51.660;5.824;2024-01-07T12:09:38;102362.50;;;4.56;58.81
48527;BME280;34317;51.660;5.824;2024-01-07T12:12:05;102370.41;;;4.62;58.75
48527;BME280;34317;51.660;5.824;2024-01-07T12:14:33;102364.31;;;4.66;59.02
48527;BME280;34317;51.660;5.824;2024-01-07T12:17:02;102372.22;;;4.69;58.57
48527;BME280;34317;51.660;5.824;2024-01-07T12:19:29;102373.97;;;4.72;58.43
48527;BME280;34317;51.660;5.824;2024-01-07T12:22:06;102373.94;;;4.70;58.23
48527;BME280;34317;51.660;5.824;2024-01-07T12:24:33;102381.81;;;4.70;58.23
48527;BME280;34317;51.660;5.824;2024-01-07T12:27:06;102385.31;;;4.72;57.86
48527;BME280;34317;51.660;5.824;2024-01-07T12:29:33;102378.31;;;4.74;57.82
48527;BME280;34317;51.660;5.824;2024-01-07T12:32:01;102376.59;;;4.73;57.67
48527;BME280;34317;51.660;5.824;2024-01-07T12:34:30;102387.06;;;4.70;57.36
48527;BME280;34317;51.660;5.824;2024-01-07T12:36:58;102385.31;;;4.66;57.36
48527;BME280;34317;51.660;5.824;2024-01-07T12:39:29;102397.53;;;4.64;57.25
48527;BME280;34317;51.660;5.824;2024-01-07T12:41:57;102383.53;;;4.62;56.88
48527;BME280;34317;51.660;5.824;2024-01-07T12:44:28;102395.78;;;4.60;56.87
48527;BME280;34317;51.660;5.824;2024-01-07T12:46:56;102395.75;;;4.57;56.89
48527;BME280;34317;51.660;5.824;2024-01-07T12:49:23;102398.38;;;4.57;56.80
48527;BME280;34317;51.660;5.824;2024-01-07T12:51:51;102399.22;;;4.56;56.67
48527;BME280;34317;51.660;5.824;2024-01-07T12:54:19;102399.25;;;4.53;56.65
48527;BME280;34317;51.660;5.824;2024-01-07T12:56:46;102393.97;;;4.49;56.50
48527;BME280;34317;51.660;5.824;2024-01-07T13:03:13;102407.91;;;4.39;56.10
48527;BME280;34317;51.660;5.824;2024-01-07T13:05:45;102411.34;;;4.32;55.69
48527;BME280;34317;51.660;5.824;2024-01-07T13:08:19;102402.56;;;4.27;55.34
48527;BME280;34317;51.660;5.824;2024-01-07T13:10:49;102414.81;;;4.25;54.99
48527;BME280;34317;51.660;5.824;2024-01-07T13:13:16;102418.31;;;4.24;54.71
48527;BME280;34317;51.660;5.824;2024-01-07T13:15:48;102420.94;;;4.24;54.56
48527;BME280;34317;51.660;5.824;2024-01-07T13:18:18;102425.28;;;4.25;54.29
48527;BME280;34317;51.660;5.824;2024-01-07T13:20:46;102423.56;;;4.24;54.02
48527;BME280;34317;51.660;5.824;2024-01-07T13:23:15;102434.03;;;4.24;54.36
48527;BME280;34317;51.660;5.824;2024-01-07T13:25:43;102439.28;;;4.27;54.63
48527;BME280;34317;51.660;5.824;2024-01-07T13:28:10;102438.44;;;4.31;54.98
48527;BME280;34317;51.660;5.824;2024-01-07T13:30:39;102441.13;;;4.37;54.28
48527;BME280;34317;51.660;5.824;2024-01-07T13:33:07;102444.63;;;4.42;54.04